sensor_id;sensor_type;location;lat;lon;timestamp;pressure;altitude;pressure_sealevel;temperature;humidity
33189;BME280;52601;53.070;10.600;2022-10-04T00:00:38;101954.63;;;11.14;100.00
33189;BME280;52601;53.070;10.600;2022-10-04T00:03:29;101952.94;;;11.12;100.00
33189;BME280;52601;53.070;10.600;2022-10-04T00:06:22;101959.19;;;11.08;100.00
33189;BME280;52601;53.070;10.600;2022-10-04T00:09:14;101953.94;;;11.08;100.00
33189;BME280;52601;53.070;10.600;2022-10-04T00:12:01;101958.75;;;11.21;100.00
33189;BME280;52601;53.070;10.600;2022-10-04T00:14:49;101959.00;;;11.14;100.00
33189;BME280;52601;53.070;10.600;2022-10-04T00:17:35;101951.34;;;11.06;100.00
33189;BME280;52601;53.070;10.600;2022-10-04T00:23:43;101965.22;;;11.11;100.00
33189;BME280;52601;53.070;10.600;2022-10-04T00:35:00;101956.28;;;10.88;100.00
33189;BME280;52601;53.070;10.600;2022-10-04T00:40:57;101966.19;;;10.78;100.00
33189;BME280;52601;53.070;10.600;2022-10-04T00:43:46;101962.09;;;10.70;100.00
33189;BME280;52601;53.070;10.600;2022-10-04T00:46:34;101956.84;;;10.70;100.00
33189;BME280;52601;53.070;10.600;2022-10-04T00:49:22;101946.66;;;10.59;100.00
33189;BME280;52601;53.070;10.600;2022-10-04T00:52:15;101954.91;;;10.46;100.00
33189;BME280;52601;53.070;10.600;2022-10-04T00:55:05;101941.22;;;10.34;100.00
33189;BME280;52601;53.070;10.600;2022-10-04T00:57:59;101946.41;;;10.37;100.00
33189;BME280;52601;53.070;10.600;2022-10-04T01:00:47;101943.44;;;10.50;100.00
33189;BME280;52601;53.070;10.600;2022-10-04T01:03:38;101939.25;;;10.43;100.00
33189;BME280;52601;53.070;10.600;2022-10-04T01:06:26;101934.81;;;10.45;100.00
33189;BME280;52601;53.070;10.600;2022-10-04T01:09:12;101932.19;;;10.45;100.00
33189;BME280;52601;53.070;10.600;2022-10-04T01:12:06;101927.22;;;10.35;100.00
33189;BME280;52601;53.070;10.600;2022-10-04T01:15:04;101928.00;;;10.39;100.00
33189;BME280;52601;53.070;10.600;2022-10-04T01:18:14;101913.94;;;10.42;100.00
33189;BME280;52601;53.070;10.600;2022-10-04T01:21:04;101923.72;;;10.35;100.00
33189;BME280;52601;53.070;10.600;2022-10-04T01:26:44;101921.44;;;10.23;100.00
33189;BME280;52601;53.070;10.600;2022-10-04T01:29:30;101920.56;;;10.22;100.00
33189;BME280;52601;53.070;10.600;2022-10-04T01:32:16;101911.81;;;10.23;100.00
33189;BME280;52601;53.070;10.600;2022-10-04T01:35:01;101923.19;;;10.22;100.00
33189;BME280;52601;53.070;10.600;2022-10-04T01:37:47;101925.00;;;10.20;100.00
33189;BME280;52601;53.070;10.600;2022-10-04T01:40:42;101916.41;;;10.15;100.00
33189;BME280;52601;53.070;10.600;2022-10-04T01:43:36;101903.38;;;10.12;100.00
33189;BME280;52601;53.070;10.600;2022-10-04T01:46:26;101917.88;;;10.25;100.00
33189;BME280;52601;53.070;10.600;2022-10-04T01:49:17;101899.81;;;10.15;100.00
33189;BME280;52601;53.070;10.600;2022-10-04T01:52:09;101914.34;;;10.26;100.00
33189;BME280;52601;53.070;10.600;2022-10-04T01:58:10;101898.78;;;10.22;100.00
33189;BME280;52601;53.070;10.600;2022-10-04T02:01:05;101915.81;;;10.36;100.00
33189;BME280;52601;53.070;10.600;2022-10-04T02:04:01;101897.50;;;10.35;100.00
33189;BME280;52601;53.070;10.600;2022-10-04T02:06:50;101894.94;;;10.33;100.00
33189;BME280;52601;53.070;10.600;2022-10-04T02:09:40;101893.16;;;10.34;100.00
33189;BME280;52601;53.070;10.600;2022-10-04T02:12:28;101891.50;;;10.31;100.00
33189;BME280;52601;53.070;10.600;2022-10-04T02:15:17;101891.56;;;10.28;100.00
33189;BME280;52601;53.070;10.600;2022-10-04T02:18:11;101903.19;;;10.20;100.00
33189;BME280;52601;53.070;10.600;2022-10-04T02:20:57;101902.50;;;10.13;100.00
33189;BME280;52601;53.070;10.600;2022-10-04T02:23:44;101896.34;;;10.14;100.00
33189;BME280;52601;53.070;10.600;2022-10-04T02:26:31;101892.00;;;10.13;100.00
33189;BME280;52601;53.070;10.600;2022-10-04T02:29:18;101894.41;;;10.21;100.00
33189;BME280;52601;53.070;10.600;2022-10-04T02:32:07;101895.59;;;10.09;100.00
33189;BME280;52601;53.070;10.600;2022-10-04T02:35:11;101882.53;;;10.08;100.00
33189;BME280;52601;53.070;10.600;2022-10-04T02:38:11;101884.50;;;9.98;100.00
33189;BME280;52601;53.070;10.600;2022-10-04T02:44:33;101871.56;;;9.92;100.00
33189;BME280;52601;53.070;10.600;2022-10-04T02:47:25;101876.66;;;9.98;100.00
33189;BME280;52601;53.070;10.600;2022-10-04T02:50:30;101864.38;;;10.00;100.00
33189;BME280;52601;53.070;10.600;2022-10-04T02:53:31;101871.47;;;9.97;100.00
33189;BME280;52601;53.070;10.600;2022-10-04T02:56:23;101882.72;;;10.00;100.00
33189;BME280;52601;53.070;10.600;2022-10-04T02:59:14;101874.91;;;9.99;100.00
33189;BME280;52601;53.070;10.600;2022-10-04T03:02:01;101871.56;;;9.92;100.00
33189;BME280;52601;53.070;10.600;2022-10-04T03:04:47;101878.44;;;9.96;100.00
33189;BME280;52601;53.070;10.600;2022-10-04T03:07:35;101874.78;;;10.03;100.00
33189;BME280;52601;53.070;10.600;2022-10-04T03:10:21;101867.78;;;10.04;100.00
33189;BME280;52601;53.070;10.600;2022-10-04T03:13:06;101861.72;;;10.02;100.00
33189;BME280;52601;53.070;10.600;2022-10-04T03:15:52;101864.53;;;9.94;100.00
33189;BME280;52601;53.070;10.600;2022-10-04T03:18:38;101867.03;;;9.99;100.00
33189;BME280;52601;53.070;10.600;2022-10-04T03:21:24;101863.50;;;10.01;100.00
33189;BME280;52601;53.070;10.600;2022-10-04T03:24:18;101837.88;;;10.12;100.00
33189;BME280;52601;53.070;10.600;2022-10-04T03:27:06;101847.06;;;10.27;100.00
33189;BME280;52601;53.070;10.600;2022-10-04T03:29:54;101839.72;;;10.38;100.00
33189;BME280;52601;53.070;10.600;2022-10-04T03:32:43;101835.06;;;10.49;100.00
33189;BME280;52601;53.070;10.600;2022-10-04T03:35:32;101841.97;;;10.52;100.00
33189;BME280;52601;53.070;10.600;2022-10-04T03:38:20;101828.88;;;10.50;100.00
33189;BME280;52601;53.070;10.600;2022-10-04T03:41:09;101838.53;;;10.50;100.00
33189;BME280;52601;53.070;10.600;2022-10-04T03:43:55;101838.75;;;10.42;100.00
33189;BME280;52601;53.070;10.600;2022-10-04T03:46:47;101835.13;;;10.46;100.00
33189;BME280;52601;53.070;10.600;2022-10-04T03:49:35;101845.63;;;10.46;100.00
33189;BME280;52601;53.070;10.600;2022-10-04T03:52:27;101857.78;;;10.49;100.00
33189;BME280;52601;53.070;10.600;2022-10-04T03:55:15;101843.03;;;10.45;100.00
33189;BME280;52601;53.070;10.600;2022-10-04T03:58:01;101846.53;;;10.45;100.00
33189;BME280;52601;53.070;10.600;2022-10-04T04:01:02;101859.78;;;10.40;100.00
33189;BME280;52601;53.070;10.600;2022-10-04T04:04:14;101854.28;;;10.50;100.00
33189;BME280;52601;53.070;10.600;2022-10-04T04:07:05;101849.66;;;10.58;100.00
33189;BME280;52601;53.070;10.600;2022-10-04T04:10:06;101856.53;;;10.62;100.00
33189;BME280;52601;53.070;10.600;2022-10-04T04:16:01;101838.44;;;10.53;100.00
33189;BME280;52601;53.070;10.600;2022-10-04T04:18:47;101844.25;;;10.62;100.00
33189;BME280;52601;53.070;10.600;2022-10-04T04:21:34;101837.91;;;10.42;100.00
33189;BME280;52601;53.070;10.600;2022-10-04T04:24:26;101841.91;;;10.53;100.00
33189;BME280;52601;53.070;10.600;2022-10-04T04:27:15;101846.13;;;10.59;100.00
33189;BME280;52601;53.070;10.600;2022-10-04T04:30:03;101851.09;;;10.68;100.00
33189;BME280;52601;53.070;10.600;2022-10-04T04:32:53;101846.84;;;10.64;100.00
33189;BME280;52601;53.070;10.600;2022-10-04T04:35:41;101841.50;;;10.67;100.00
33189;BME280;52601;53.070;10.600;2022-10-04T04:38:26;101840.63;;;10.66;100.00
33189;BME280;52601;53.070;10.600;2022-10-04T04:41:13;101838.19;;;10.62;100.00
33189;BME280;52601;53.070;10.600;2022-10-04T04:43:58;101829.34;;;10.64;100.00
33189;BME280;52601;53.070;10.600;2022-10-04T04:46:45;101826.91;;;10.58;100.00
33189;BME280;52601;53.070;10.600;2022-10-04T04:49:32;101837.38;;;10.60;100.00
33189;BME280;52601;53.070;10.600;2022-10-04T04:52:20;101837.44;;;10.57;100.00
33189;BME280;52601;53.070;10.600;2022-10-04T04:55:16;101839.69;;;10.69;100.00
33189;BME280;52601;53.070;10.600;2022-10-04T04:58:03;101841.50;;;10.67;100.00
33189;BME280;52601;53.070;10.600;2022-10-04T05:00:56;101840.75;;;10.63;100.00
33189;BME280;52601;53.070;10.600;2022-10-04T05:03:43;101832.75;;;10.66;100.00
33189;BME280;52601;53.070;10.600;2022-10-04T05:06:30;101831.13;;;10.64;100.00
33189;BME280;52601;53.070;10.600;2022-10-04T05:09:36;101825.47;;;10.76;100.00
33189;BME280;52601;53.070;10.600;2022-10-04T05:12:25;101826.69;;;10.66;100.00
33189;BME280;52601;53.070;10.600;2022-10-04T05:15:11;101829.06;;;10.73;100.00
33189;BME280;52601;53.070;10.600;2022-10-04T05:17:57;101827.81;;;10.85;100.00
33189;BME280;52601;53.070;10.600;2022-10-04T05:20:48;101825.00;;;10.91;100.00
33189;BME280;52601;53.070;10.600;2022-10-04T05:23:34;101818.13;;;10.87;100.00
33189;BME280;52601;53.070;10.600;2022-10-04T05:26:26;101824.66;;;10.74;100.00
33189;BME280;52601;53.070;10.600;2022-10-04T05:29:18;101822.72;;;10.80;100.00
33189;BME280;52601;53.070;10.600;2022-10-04T05:32:29;101822.44;;;10.89;100.00
33189;BME280;52601;53.070;10.600;2022-10-04T05:35:21;101815.56;;;10.85;100.00
33189;BME280;52601;53.070;10.600;2022-10-04T05:41:12;101805.81;;;10.89;100.00
33189;BME280;52601;53.070;10.600;2022-10-04T05:44:00;101821.25;;;10.98;100.00
33189;BME280;52601;53.070;10.600;2022-10-04T05:46:46;101817.00;;;10.95;100.00
33189;BME280;52601;53.070;10.600;2022-10-04T05:49:38;101805.44;;;11.01;100.00
33189;BME280;52601;53.070;10.600;2022-10-04T05:52:33;101797.75;;;10.95;100.00
33189;BME280;52601;53.070;10.600;2022-10-04T05:55:24;101816.06;;;10.96;100.00
33189;BME280;52601;53.070;10.600;2022-10-04T06:01:41;101829.63;;;11.10;100.00
33189;BME280;52601;53.070;10.600;2022-10-04T06:07:32;101837.53;;;11.09;100.00
33189;BME280;52601;53.070;10.600;2022-10-04T06:10:47;101834.41;;;11.24;100.00
33189;BME280;52601;53.070;10.600;2022-10-04T06:19:57;101838.31;;;11.39;100.00
33189;BME280;52601;53.070;10.600;2022-10-04T06:22:50;101844.50;;;11.36;100.00
33189;BME280;52601;53.070;10.600;2022-10-04T06:25:47;101847.75;;;11.44;100.00
33189;BME280;52601;53.070;10.600;2022-10-04T06:28:44;101847.44;;;11.53;100.00
33189;BME280;52601;53.070;10.600;2022-10-04T06:31:43;101844.38;;;11.67;100.00
33189;BME280;52601;53.070;10.600;2022-10-04T06:45:18;101847.72;;;11.96;100.00
33189;BME280;52601;53.070;10.600;2022-10-04T06:47:47;101861.53;;;12.01;100.00
33189;BME280;52601;53.070;10.600;2022-10-04T06:50:57;101860.34;;;12.10;100.00
33189;BME280;52601;53.070;10.600;2022-10-04T07:00:06;101860.13;;;12.39;100.00
33189;BME280;52601;53.070;10.600;2022-10-04T07:03:14;101857.69;;;12.35;100.00
33189;BME280;52601;53.070;10.600;2022-10-04T07:06:03;101848.72;;;12.40;100.00
33189;BME280;52601;53.070;10.600;2022-10-04T07:08:50;101852.16;;;12.42;100.00
33189;BME280;52601;53.070;10.600;2022-10-04T07:11:46;101846.84;;;12.65;100.00
33189;BME280;52601;53.070;10.600;2022-10-04T07:14:38;101849.91;;;12.99;100.00
33189;BME280;52601;53.070;10.600;2022-10-04T07:17:34;101848.06;;;13.23;100.00
33189;BME280;52601;53.070;10.600;2022-10-04T07:20:25;101854.47;;;13.79;100.00
33189;BME280;52601;53.070;10.600;2022-10-04T07:23:19;101845.84;;;14.91;100.00
33189;BME280;52601;53.070;10.600;2022-10-04T07:26:24;101837.66;;;14.78;100.00
33189;BME280;52601;53.070;10.600;2022-10-04T07:38:14;101833.78;;;18.34;82.16
33189;BME280;52601;53.070;10.600;2022-10-04T07:44:02;101841.00;;;19.28;75.17
33189;BME280;52601;53.070;10.600;2022-10-04T07:46:56;101834.06;;;19.39;75.27
33189;BME280;52601;53.070;10.600;2022-10-04T07:49:42;101832.91;;;19.17;77.33
33189;BME280;52601;53.070;10.600;2022-10-04T07:55:50;101832.44;;;19.76;76.93
33189;BME280;52601;53.070;10.600;2022-10-04T07:58:43;101829.69;;;21.00;70.55
33189;BME280;52601;53.070;10.600;2022-10-04T08:01:40;101821.41;;;21.74;66.34
33189;BME280;52601;53.070;10.600;2022-10-04T08:11:00;101843.84;;;22.06;66.39
33189;BME280;52601;53.070;10.600;2022-10-04T08:16:57;101830.78;;;23.13;64.71
33189;BME280;52601;53.070;10.600;2022-10-04T08:23:01;101833.09;;;24.81;57.20
33189;BME280;52601;53.070;10.600;2022-10-04T08:32:19;101837.78;;;20.88;70.88
33189;BME280;52601;53.070;10.600;2022-10-04T08:38:31;101819.19;;;22.69;64.91
33189;BME280;52601;53.070;10.600;2022-10-04T08:41:43;101831.69;;;22.13;66.93
33189;BME280;52601;53.070;10.600;2022-10-04T08:51:31;101826.56;;;19.71;73.62
33189;BME280;52601;53.070;10.600;2022-10-04T09:00:47;101834.94;;;19.65;75.46
33189;BME280;52601;53.070;10.600;2022-10-04T09:13:25;101814.44;;;26.40;52.25
33189;BME280;52601;53.070;10.600;2022-10-04T09:22:18;101816.50;;;27.71;48.41
33189;BME280;52601;53.070;10.600;2022-10-04T09:28:58;101814.03;;;29.77;46.19
33189;BME280;52601;53.070;10.600;2022-10-04T09:43:59;101801.47;;;29.03;45.21
33189;BME280;52601;53.070;10.600;2022-10-04T09:56:43;101794.47;;;24.62;56.32
33189;BME280;52601;53.070;10.600;2022-10-04T09:59:51;101795.63;;;25.94;52.31
33189;BME280;52601;53.070;10.600;2022-10-04T10:25:45;101775.53;;;21.69;64.02
33189;BME280;52601;53.070;10.600;2022-10-04T10:35:44;101758.41;;;22.49;63.38
33189;BME280;52601;53.070;10.600;2022-10-04T10:42:20;101767.03;;;22.64;61.75
33189;BME280;52601;53.070;10.600;2022-10-04T10:45:18;101760.84;;;22.95;60.91
33189;BME280;52601;53.070;10.600;2022-10-04T10:48:15;101767.13;;;22.84;60.08
33189;BME280;52601;53.070;10.600;2022-10-04T10:51:16;101762.22;;;24.43;57.40
33189;BME280;52601;53.070;10.600;2022-10-04T10:57:36;101759.22;;;25.15;53.43
33189;BME280;52601;53.070;10.600;2022-10-04T11:07:15;101767.00;;;24.00;56.54
33189;BME280;52601;53.070;10.600;2022-10-04T11:13:43;101759.84;;;23.07;58.15
33189;BME280;52601;53.070;10.600;2022-10-04T11:20:39;101755.22;;;24.71;54.69
33189;BME280;52601;53.070;10.600;2022-10-04T11:29:57;101733.22;;;27.24;47.25
33189;BME280;52601;53.070;10.600;2022-10-04T11:33:20;101733.09;;;29.27;45.23
33189;BME280;52601;53.070;10.600;2022-10-04T11:51:16;101720.06;;;29.46;44.59
33189;BME280;52601;53.070;10.600;2022-10-04T11:54:42;101706.69;;;26.14;49.22
33189;BME280;52601;53.070;10.600;2022-10-04T12:10:28;101693.63;;;32.85;36.55
33189;BME280;52601;53.070;10.600;2022-10-04T12:13:29;101679.75;;;30.76;40.30
33189;BME280;52601;53.070;10.600;2022-10-04T12:23:11;101681.19;;;32.19;39.14
33189;BME280;52601;53.070;10.600;2022-10-04T12:30:03;101675.03;;;28.33;45.15
33189;BME280;52601;53.070;10.600;2022-10-04T12:33:11;101663.66;;;28.95;43.88
33189;BME280;52601;53.070;10.600;2022-10-04T12:36:34;101655.47;;;31.42;40.33
33189;BME280;52601;53.070;10.600;2022-10-04T12:40:02;101644.91;;;32.62;38.49
33189;BME280;52601;53.070;10.600;2022-10-04T12:45:53;101627.56;;;32.06;39.48
33189;BME280;52601;53.070;10.600;2022-10-04T12:58:26;101602.00;;;32.58;39.29
33189;BME280;52601;53.070;10.600;2022-10-04T13:01:25;101609.16;;;32.44;39.32
33189;BME280;52601;53.070;10.600;2022-10-04T13:04:33;101610.59;;;32.82;37.71
33189;BME280;52601;53.070;10.600;2022-10-04T13:07:45;101606.78;;;32.35;39.02
33189;BME280;52601;53.070;10.600;2022-10-04T13:13:55;101612.03;;;32.00;39.46
33189;BME280;52601;53.070;10.600;2022-10-04T13:29:19;101595.34;;;32.39;37.97
33189;BME280;52601;53.070;10.600;2022-10-04T13:32:22;101586.78;;;30.75;38.94
33189;BME280;52601;53.070;10.600;2022-10-04T13:35:23;101578.84;;;31.25;38.83
33189;BME280;52601;53.070;10.600;2022-10-04T13:38:34;101579.41;;;31.65;39.42
33189;BME280;52601;53.070;10.600;2022-10-04T13:42:05;101567.25;;;33.77;37.50
33189;BME280;52601;53.070;10.600;2022-10-04T13:51:56;101565.22;;;32.83;37.25
33189;BME280;52601;53.070;10.600;2022-10-04T14:01:14;101571.19;;;32.30;36.96
33189;BME280;52601;53.070;10.600;2022-10-04T14:04:38;101571.59;;;32.27;37.42
33189;BME280;52601;53.070;10.600;2022-10-04T14:10:51;101574.75;;;32.72;37.46
33189;BME280;52601;53.070;10.600;2022-10-04T14:14:13;101574.44;;;32.18;37.86
33189;BME280;52601;53.070;10.600;2022-10-04T14:23:47;101548.06;;;31.62;38.50
33189;BME280;52601;53.070;10.600;2022-10-04T14:42:34;101513.84;;;31.47;38.96
33189;BME280;52601;53.070;10.600;2022-10-04T14:52:04;101517.28;;;30.30;40.39
33189;BME280;52601;53.070;10.600;2022-10-04T14:54:56;101516.25;;;30.31;41.38
33189;BME280;52601;53.070;10.600;2022-10-04T15:01:05;101498.88;;;30.78;38.59
33189;BME280;52601;53.070;10.600;2022-10-04T15:07:01;101498.72;;;29.74;39.64
33189;BME280;52601;53.070;10.600;2022-10-04T15:19:29;101518.03;;;23.38;52.72
33189;BME280;52601;53.070;10.600;2022-10-04T15:22:27;101510.16;;;22.45;55.61
33189;BME280;52601;53.070;10.600;2022-10-04T15:25:46;101518.47;;;21.01;59.95
33189;BME280;52601;53.070;10.600;2022-10-04T15:31:51;101511.72;;;20.40;62.75
33189;BME280;52601;53.070;10.600;2022-10-04T15:35:02;101506.69;;;20.24;63.67
33189;BME280;52601;53.070;10.600;2022-10-04T15:37:59;101511.69;;;19.82;64.73
33189;BME280;52601;53.070;10.600;2022-10-04T15:40:57;101512.41;;;19.60;66.13
33189;BME280;52601;53.070;10.600;2022-10-04T15:50:05;101484.22;;;18.83;70.04
33189;BME280;52601;53.070;10.600;2022-10-04T15:53:11;101485.69;;;18.87;73.50
33189;BME280;52601;53.070;10.600;2022-10-04T16:05:43;101514.28;;;18.46;71.99
33189;BME280;52601;53.070;10.600;2022-10-04T16:12:16;101513.97;;;18.12;75.09
33189;BME280;52601;53.070;10.600;2022-10-04T16:15:39;101512.91;;;18.14;73.63
33189;BME280;52601;53.070;10.600;2022-10-04T16:21:41;101497.22;;;17.84;76.21
33189;BME280;52601;53.070;10.600;2022-10-04T16:24:44;101489.94;;;17.74;77.47
33189;BME280;52601;53.070;10.600;2022-10-04T16:33:35;101481.13;;;17.33;78.33
33189;BME280;52601;53.070;10.600;2022-10-04T16:36:26;101489.75;;;17.22;80.01
33189;BME280;52601;53.070;10.600;2022-10-04T16:42:56;101485.63;;;17.04;81.72
33189;BME280;52601;53.070;10.600;2022-10-04T16:54:41;101484.03;;;16.29;85.91
33189;BME280;52601;53.070;10.600;2022-10-04T16:57:31;101488.25;;;16.18;86.57
33189;BME280;52601;53.070;10.600;2022-10-04T17:00:34;101488.66;;;16.26;86.18
33189;BME280;52601;53.070;10.600;2022-10-04T17:03:29;101490.69;;;15.91;89.38
33189;BME280;52601;53.070;10.600;2022-10-04T17:16:10;101500.47;;;15.44;94.99
33189;BME280;52601;53.070;10.600;2022-10-04T17:19:16;101497.63;;;15.31;97.21
33189;BME280;52601;53.070;10.600;2022-10-04T17:27:56;101502.31;;;15.11;96.81
33189;BME280;52601;53.070;10.600;2022-10-04T17:30:52;101493.25;;;14.99;97.46
33189;BME280;52601;53.070;10.600;2022-10-04T17:40:32;101491.25;;;14.87;99.25
33189;BME280;52601;53.070;10.600;2022-10-04T17:43:56;101484.25;;;14.86;99.73
33189;BME280;52601;53.070;10.600;2022-10-04T17:50:11;101466.97;;;14.81;100.00
33189;BME280;52601;53.070;10.600;2022-10-04T17:53:22;101479.50;;;14.60;99.70
33189;BME280;52601;53.070;10.600;2022-10-04T17:56:39;101476.44;;;14.67;97.85
33189;BME280;52601;53.070;10.600;2022-10-04T17:59:27;101489.91;;;14.63;97.57
33189;BME280;52601;53.070;10.600;2022-10-04T18:17:45;101479.13;;;14.16;100.00
33189;BME280;52601;53.070;10.600;2022-10-04T18:21:19;101487.81;;;14.18;100.00
33189;BME280;52601;53.070;10.600;2022-10-04T18:27:13;101489.47;;;14.38;100.00
33189;BME280;52601;53.070;10.600;2022-10-04T18:30:13;101492.81;;;14.41;100.00
33189;BME280;52601;53.070;10.600;2022-10-04T18:33:00;101491.78;;;14.27;100.00
33189;BME280;52601;53.070;10.600;2022-10-04T18:35:59;101481.22;;;14.27;100.00
33189;BME280;52601;53.070;10.600;2022-10-04T18:41:59;101490.69;;;14.14;100.00
33189;BME280;52601;53.070;10.600;2022-10-04T18:47:58;101485.56;;;14.11;100.00
33189;BME280;52601;53.070;10.600;2022-10-04T18:50:44;101485.19;;;14.01;100.00
33189;BME280;52601;53.070;10.600;2022-10-04T19:00:11;101511.00;;;13.76;100.00
33189;BME280;52601;53.070;10.600;2022-10-04T19:06:26;101507.97;;;13.66;100.00
33189;BME280;52601;53.070;10.600;2022-10-04T19:12:20;101495.84;;;13.81;100.00
33189;BME280;52601;53.070;10.600;2022-10-04T19:27:18;101481.19;;;13.21;100.00
33189;BME280;52601;53.070;10.600;2022-10-04T19:30:14;101469.38;;;13.30;100.00
33189;BME280;52601;53.070;10.600;2022-10-04T19:40:04;101468.50;;;13.29;100.00
33189;BME280;52601;53.070;10.600;2022-10-04T19:45:29;101504.97;;;13.20;100.00
33189;BME280;52601;53.070;10.600;2022-10-04T19:48:24;101503.25;;;12.98;100.00
33189;BME280;52601;53.070;10.600;2022-10-04T19:54:11;101544.97;;;12.69;100.00
33189;BME280;52601;53.070;10.600;2022-10-04T19:57:02;101555.75;;;12.63;100.00
33189;BME280;52601;53.070;10.600;2022-10-04T19:59:54;101521.75;;;12.38;100.00
33189;BME280;52601;53.070;10.600;2022-10-04T20:02:42;101515.97;;;12.50;100.00
33189;BME280;52601;53.070;10.600;2022-10-04T20:05:49;101501.50;;;12.60;100.00
33189;BME280;52601;53.070;10.600;2022-10-04T20:11:45;101480.97;;;12.68;100.00
33189;BME280;52601;53.070;10.600;2022-10-04T20:17:29;101478.38;;;12.67;100.00
33189;BME280;52601;53.070;10.600;2022-10-04T20:26:43;101475.91;;;12.44;100.00
33189;BME280;52601;53.070;10.600;2022-10-04T20:35:56;101488.22;;;12.43;100.00
33189;BME280;52601;53.070;10.600;2022-10-04T20:47:33;101484.97;;;11.96;100.00
33189;BME280;52601;53.070;10.600;2022-10-04T20:50:36;101493.66;;;11.98;100.00
33189;BME280;52601;53.070;10.600;2022-10-04T20:53:31;101495.34;;;11.99;100.00
33189;BME280;52601;53.070;10.600;2022-10-04T20:56:29;101496.28;;;11.98;100.00
33189;BME280;52601;53.070;10.600;2022-10-04T20:59:17;101489.25;;;11.99;100.00
33189;BME280;52601;53.070;10.600;2022-10-04T21:02:03;101485.34;;;11.87;100.00
33189;BME280;52601;53.070;10.600;2022-10-04T21:05:21;101488.19;;;11.83;100.00
33189;BME280;52601;53.070;10.600;2022-10-04T21:08:24;101502.69;;;11.91;100.00
33189;BME280;52601;53.070;10.600;2022-10-04T21:11:15;101525.44;;;11.71;100.00
33189;BME280;52601;53.070;10.600;2022-10-04T21:14:08;101506.59;;;11.60;100.00
33189;BME280;52601;53.070;10.600;2022-10-04T21:17:36;101509.03;;;11.64;100.00
33189;BME280;52601;53.070;10.600;2022-10-04T21:20:47;101493.16;;;11.67;100.00
33189;BME280;52601;53.070;10.600;2022-10-04T21:23:34;101487.94;;;11.44;100.00
33189;BME280;52601;53.070;10.600;2022-10-04T21:26:22;101487.63;;;11.30;100.00
33189;BME280;52601;53.070;10.600;2022-10-04T21:29:09;101476.09;;;11.34;100.00
33189;BME280;52601;53.070;10.600;2022-10-04T21:31:56;101463.66;;;11.39;100.00
33189;BME280;52601;53.070;10.600;2022-10-04T21:34:44;101470.44;;;11.45;100.00
33189;BME280;52601;53.070;10.600;2022-10-04T21:37:40;101464.06;;;11.50;100.00
33189;BME280;52601;53.070;10.600;2022-10-04T21:40:26;101447.88;;;11.61;100.00
33189;BME280;52601;53.070;10.600;2022-10-04T21:43:11;101448.50;;;11.67;100.00
33189;BME280;52601;53.070;10.600;2022-10-04T21:45:57;101418.38;;;11.76;100.00
33189;BME280;52601;53.070;10.600;2022-10-04T21:48:43;101430.94;;;11.89;100.00
33189;BME280;52601;53.070;10.600;2022-10-04T21:51:30;101427.94;;;11.98;100.00
33189;BME280;52601;53.070;10.600;2022-10-04T21:54:22;101432.97;;;12.03;100.00
33189;BME280;52601;53.070;10.600;2022-10-04T21:57:09;101433.59;;;12.09;100.00
33189;BME280;52601;53.070;10.600;2022-10-04T21:59:56;101447.84;;;12.04;100.00
33189;BME280;52601;53.070;10.600;2022-10-04T22:02:42;101470.56;;;12.05;100.00
33189;BME280;52601;53.070;10.600;2022-10-04T22:05:29;101463.25;;;11.91;100.00
33189;BME280;52601;53.070;10.600;2022-10-04T22:08:15;101462.91;;;12.00;100.00
33189;BME280;52601;53.070;10.600;2022-10-04T22:11:02;101471.72;;;12.20;100.00
33189;BME280;52601;53.070;10.600;2022-10-04T22:13:49;101468.53;;;12.11;100.00
33189;BME280;52601;53.070;10.600;2022-10-04T22:16:35;101480.53;;;12.19;100.00
33189;BME280;52601;53.070;10.600;2022-10-04T22:19:21;101480.06;;;12.29;100.00
33189;BME280;52601;53.070;10.600;2022-10-04T22:22:13;101464.88;;;12.16;100.00
33189;BME280;52601;53.070;10.600;2022-10-04T22:25:00;101484.06;;;12.18;100.00
33189;BME280;52601;53.070;10.600;2022-10-04T22:27:46;101490.38;;;12.13;100.00
33189;BME280;52601;53.070;10.600;2022-10-04T22:30:34;101491.50;;;12.08;100.00
33189;BME280;52601;53.070;10.600;2022-10-04T22:41:57;101485.03;;;11.73;100.00
33189;BME280;52601;53.070;10.600;2022-10-04T22:44:43;101498.94;;;11.77;100.00
33189;BME280;52601;53.070;10.600;2022-10-04T22:47:31;101487.16;;;11.64;100.00
33189;BME280;52601;53.070;10.600;2022-10-04T22:50:36;101490.28;;;11.73;100.00
33189;BME280;52601;53.070;10.600;2022-10-04T22:53:24;101488.88;;;11.65;100.00
33189;BME280;52601;53.070;10.600;2022-10-04T22:56:14;101488.13;;;11.61;100.00
33189;BME280;52601;53.070;10.600;2022-10-04T22:59:00;101490.50;;;11.69;100.00
33189;BME280;52601;53.070;10.600;2022-10-04T23:01:46;101485.78;;;11.55;100.00
33189;BME280;52601;53.070;10.600;2022-10-04T23:04:33;101474.09;;;11.62;100.00
33189;BME280;52601;53.070;10.600;2022-10-04T23:07:20;101476.31;;;11.73;100.00
33189;BME280;52601;53.070;10.600;2022-10-04T23:10:07;101473.00;;;11.89;100.00
33189;BME280;52601;53.070;10.600;2022-10-04T23:12:54;101461.44;;;11.93;100.00
33189;BME280;52601;53.070;10.600;2022-10-04T23:15:40;101471.59;;;12.02;100.00